Time;durP1;ratioP1;P1;durP2;ratioP2;P2;SDS_P1;SDS_P2;PMS_P1;PMS_P2;Temp;Humidity;BMP_temperature;BMP_pressure;BME280_temperature;BME280_humidity;BME280_pressure;Samples;Min_cycle;Max_cycle;Signal;HPM_P1;HPM_P2
2021/09/06 00:02:16;;;;;;;17.70;9.50;;;;;;;;;;6151211;23;20176;-90
2021/09/06 00:05:26;;;;;;;17.67;9.32;;;;;;;;;;6150052;23;20176;-90
2021/09/06 00:08:31;;;;;;;17.45;9.23;;;;;;;;;;6147740;23;20176;-89
2021/09/06 00:11:36;;;;;;;19.00;9.05;;;;;;;;;;6148987;23;20309;-89
2021/09/06 00:14:41;;;;;;;15.15;8.75;;;;;;;;;;6150155;23;20176;-91
2021/09/06 00:17:47;;;;;;;19.02;9.40;;;;;;;;;;6150199;23;20196;-90
2021/09/06 00:20:57;;;;;;;18.55;9.68;;;;;;;;;;6153143;23;20252;-90
2021/09/06 00:24:02;;;;;;;15.88;9.15;;;;;;;;;;6148233;23;20168;-89
2021/09/06 00:27:07;;;;;;;18.42;8.98;;;;;;;;;;6148467;23;20185;-89
2021/09/06 00:30:13;;;;;;;19.73;9.57;;;;;;;;;;6149833;23;20172;-89
2021/09/06 00:33:18;;;;;;;19.55;8.93;;;;;;;;;;6148650;23;20255;-91
2021/09/06 00:36:28;;;;;;;20.23;9.65;;;;;;;;;;6150771;23;20212;-91
2021/09/06 00:39:33;;;;;;;17.38;9.30;;;;;;;;;;6148825;23;20173;-89
2021/09/06 00:42:39;;;;;;;17.55;8.98;;;;;;;;;;6148492;23;20172;-89
2021/09/06 00:45:45;;;;;;;19.55;9.30;;;;;;;;;;6150179;23;20180;-89
2021/09/06 00:48:50;;;;;;;18.35;9.55;;;;;;;;;;6149276;23;20168;-91
2021/09/06 00:51:57;;;;;;;16.48;9.02;;;;;;;;;;6151025;23;20242;-90
2021/09/06 00:55:06;;;;;;;14.18;8.65;;;;;;;;;;6150057;23;20180;-92
2021/09/06 00:58:12;;;;;;;17.45;8.98;;;;;;;;;;6147990;23;20245;-90
2021/09/06 01:01:17;;;;;;;16.25;8.68;;;;;;;;;;6148545;23;20656;-90
2021/09/06 01:04:22;;;;;;;19.33;9.45;;;;;;;;;;6148839;23;20612;-90
2021/09/06 01:07:48;;;;;;;17.00;9.07;;;;;;;;;;6166894;23;20169;-89
2021/09/06 01:11:13;;;;;;;17.95;8.95;;;;;;;;;;6165719;23;20234;-90
2021/09/06 01:14:50;;;;;;;18.27;8.90;;;;;;;;;;6167018;23;20177;-89
2021/09/06 01:17:56;;;;;;;16.63;9.27;;;;;;;;;;6148767;23;20690;-89
2021/09/06 01:21:03;;;;;;;17.80;9.57;;;;;;;;;;6149435;23;20172;-90
2021/09/06 01:24:29;;;;;;;17.70;9.65;;;;;;;;;;6147285;23;20188;-90
2021/09/06 01:27:39;;;;;;;20.73;9.35;;;;;;;;;;6148459;23;20208;-90
2021/09/06 01:30:44;;;;;;;22.55;9.45;;;;;;;;;;6147990;23;20160;-91
2021/09/06 01:33:50;;;;;;;15.93;9.32;;;;;;;;;;6147854;23;20215;-91
2021/09/06 01:36:57;;;;;;;15.88;8.75;;;;;;;;;;6148956;23;20196;-90
2021/09/06 01:40:05;;;;;;;15.90;9.20;;;;;;;;;;6146720;23;20255;-89
2021/09/06 01:43:11;;;;;;;15.73;8.57;;;;;;;;;;6147032;23;20245;-91
2021/09/06 01:46:16;;;;;;;16.95;8.93;;;;;;;;;;6148763;23;20151;-90
2021/09/06 01:49:24;;;;;;;16.33;8.63;;;;;;;;;;6148092;23;20172;-90
2021/09/06 01:52:29;;;;;;;17.17;9.25;;;;;;;;;;6147389;23;20277;-90
2021/09/06 01:55:41;;;;;;;16.73;8.85;;;;;;;;;;6146549;23;20632;-91
2021/09/06 01:58:52;;;;;;;16.90;9.07;;;;;;;;;;6146624;23;20192;-91
2021/09/06 02:01:57;;;;;;;15.73;8.73;;;;;;;;;;6147691;23;20236;-89
2021/09/06 02:05:04;;;;;;;15.27;8.30;;;;;;;;;;6151705;23;20275;-90
2021/09/06 02:08:10;;;;;;;15.32;8.85;;;;;;;;;;6149920;23;20216;-90
2021/09/06 02:11:17;;;;;;;19.42;9.00;;;;;;;;;;6146729;23;20168;-90
2021/09/06 02:14:25;;;;;;;19.15;9.05;;;;;;;;;;6146758;23;20172;-91
2021/09/06 02:17:31;;;;;;;18.13;9.20;;;;;;;;;;6148069;23;20192;-89
2021/09/06 02:20:36;;;;;;;16.02;9.20;;;;;;;;;;6149327;23;20173;-91
2021/09/06 02:23:45;;;;;;;16.42;9.55;;;;;;;;;;6147956;23;20503;-89
2021/09/06 02:26:50;;;;;;;21.02;9.70;;;;;;;;;;6146329;23;20169;-89
2021/09/06 02:30:00;;;;;;;17.95;9.25;;;;;;;;;;6147335;23;20172;-88
2021/09/06 02:33:06;;;;;;;17.52;9.32;;;;;;;;;;6147946;23;20152;-87
2021/09/06 02:36:30;;;;;;;19.73;9.25;;;;;;;;;;6167907;23;20169;-90
2021/09/06 02:39:36;;;;;;;16.52;8.45;;;;;;;;;;6148056;23;20630;-88
2021/09/06 02:42:41;;;;;;;20.65;9.15;;;;;;;;;;6148590;23;20173;-92
2021/09/06 02:45:51;;;;;;;19.30;10.30;;;;;;;;;;6147399;23;20180;-90
2021/09/06 02:48:56;;;;;;;18.23;9.27;;;;;;;;;;6147500;23;20172;-92
2021/09/06 02:52:02;;;;;;;18.23;9.52;;;;;;;;;;6148139;23;20311;-92
2021/09/06 02:55:08;;;;;;;18.83;9.88;;;;;;;;;;6147731;23;20171;-91
2021/09/06 02:58:18;;;;;;;20.80;10.18;;;;;;;;;;6147243;23;20200;-91
2021/09/06 03:01:25;;;;;;;23.27;10.98;;;;;;;;;;6147449;23;20289;-90
2021/09/06 03:04:29;;;;;;;20.67;10.80;;;;;;;;;;6146918;23;20177;-88
2021/09/06 03:07:36;;;;;;;18.33;9.70;;;;;;;;;;6146517;23;20152;-90
2021/09/06 03:10:42;;;;;;;22.10;9.75;;;;;;;;;;6148003;23;20196;-89
2021/09/06 03:13:47;;;;;;;20.45;10.32;;;;;;;;;;6147117;23;20172;-90
2021/09/06 03:17:00;;;;;;;18.50;9.73;;;;;;;;;;6146865;23;20180;-89
2021/09/06 03:20:08;;;;;;;24.90;11.55;;;;;;;;;;6148635;23;20169;-89
2021/09/06 03:23:15;;;;;;;18.42;9.73;;;;;;;;;;6147466;23;20173;-91
2021/09/06 03:26:22;;;;;;;23.02;10.35;;;;;;;;;;6148176;23;20172;-92
2021/09/06 03:29:28;;;;;;;20.67;10.88;;;;;;;;;;6148140;23;20507;-89
2021/09/06 03:32:36;;;;;;;19.83;10.80;;;;;;;;;;6148536;23;20244;-90
2021/09/06 03:35:42;;;;;;;19.90;10.20;;;;;;;;;;6148153;23;20176;-89
2021/09/06 03:38:48;;;;;;;19.60;10.50;;;;;;;;;;6146854;23;20656;-93
2021/09/06 03:41:55;;;;;;;21.88;10.55;;;;;;;;;;6148302;23;20238;-91
2021/09/06 03:45:05;;;;;;;18.73;10.35;;;;;;;;;;6148378;23;20177;-91
2021/09/06 03:48:15;;;;;;;20.15;10.43;;;;;;;;;;6146799;23;20176;-91
2021/09/06 03:51:22;;;;;;;18.80;10.20;;;;;;;;;;6148244;23;20582;-91
2021/09/06 03:54:28;;;;;;;23.08;10.98;;;;;;;;;;6149261;23;20172;-89
2021/09/06 03:57:33;;;;;;;16.40;9.52;;;;;;;;;;6149553;23;20177;-88
2021/09/06 04:00:39;;;;;;;16.48;9.23;;;;;;;;;;6148486;23;20273;-86
2021/09/06 04:04:15;;;;;;;17.02;9.63;;;;;;;;;;6148539;23;20168;-88
2021/09/06 04:07:24;;;;;;;18.80;9.77;;;;;;;;;;6148899;23;20491;-88
2021/09/06 04:10:34;;;;;;;17.70;9.98;;;;;;;;;;6149969;23;20177;-90
2021/09/06 04:13:39;;;;;;;17.33;9.38;;;;;;;;;;6151322;23;20176;-88
2021/09/06 04:16:45;;;;;;;17.02;8.95;;;;;;;;;;6150964;23;20220;-90
2021/09/06 04:19:53;;;;;;;16.77;8.90;;;;;;;;;;6151421;23;20220;-90
2021/09/06 04:23:00;;;;;;;17.98;9.40;;;;;;;;;;6149990;23;20256;-90
2021/09/06 04:26:05;;;;;;;12.82;8.27;;;;;;;;;;6150311;23;20193;-89
2021/09/06 04:29:17;;;;;;;16.88;8.60;;;;;;;;;;6152589;23;20165;-89
2021/09/06 04:32:22;;;;;;;18.95;9.55;;;;;;;;;;6150549;23;20331;-88
2021/09/06 04:35:28;;;;;;;18.65;9.15;;;;;;;;;;6151271;23;20173;-89
2021/09/06 04:38:35;;;;;;;21.80;9.50;;;;;;;;;;6150004;23;20253;-89
2021/09/06 04:41:40;;;;;;;17.92;9.88;;;;;;;;;;6149973;23;20220;-91
2021/09/06 04:44:45;;;;;;;18.17;9.68;;;;;;;;;;6150316;23;20184;-90
2021/09/06 04:47:50;;;;;;;23.27;9.88;;;;;;;;;;6150106;23;20228;-90
2021/09/06 04:50:57;;;;;;;20.08;9.20;;;;;;;;;;6149023;23;20209;-88
2021/09/06 04:54:12;;;;;;;19.92;9.82;;;;;;;;;;6150839;23;20680;-89
2021/09/06 04:57:17;;;;;;;16.90;9.52;;;;;;;;;;6151265;23;20801;-89
2021/09/06 05:00:25;;;;;;;20.45;9.32;;;;;;;;;;6152270;23;20176;-87
2021/09/06 05:03:33;;;;;;;22.75;9.65;;;;;;;;;;6150265;23;20177;-89
2021/09/06 05:06:40;;;;;;;17.90;9.45;;;;;;;;;;6150893;23;20171;-89
2021/09/06 05:09:47;;;;;;;30.17;10.27;;;;;;;;;;6152885;23;20156;-89
2021/09/06 05:12:52;;;;;;;28.75;9.13;;;;;;;;;;6155064;23;20180;-90
2021/09/06 05:15:59;;;;;;;18.73;8.95;;;;;;;;;;6154248;23;20173;-90
2021/09/06 05:19:05;;;;;;;22.58;9.30;;;;;;;;;;6154070;23;20192;-89
2021/09/06 05:22:11;;;;;;;15.07;8.70;;;;;;;;;;6158487;23;20242;-88
2021/09/06 05:25:22;;;;;;;17.35;9.63;;;;;;;;;;6158815;23;20634;-89
2021/09/06 05:28:28;;;;;;;17.95;9.75;;;;;;;;;;6157446;23;20168;-90
2021/09/06 05:31:34;;;;;;;18.38;9.27;;;;;;;;;;6156756;23;20172;-88
2021/09/06 05:34:39;;;;;;;19.17;9.63;;;;;;;;;;6156571;23;20237;-90
2021/09/06 05:37:45;;;;;;;21.17;9.52;;;;;;;;;;6157829;23;20181;-91
2021/09/06 05:40:52;;;;;;;23.67;9.80;;;;;;;;;;6160172;23;20165;-88
2021/09/06 05:43:57;;;;;;;31.40;11.00;;;;;;;;;;6158188;23;20628;-88
2021/09/06 05:47:08;;;;;;;19.90;9.52;;;;;;;;;;6157011;23;20176;-87
2021/09/06 05:50:20;;;;;;;19.08;8.63;;;;;;;;;;6155938;23;20231;-87
2021/09/06 05:53:54;;;;;;;22.05;9.68;;;;;;;;;;6173116;23;20177;-89
2021/09/06 05:57:01;;;;;;;18.38;10.18;;;;;;;;;;6150722;23;20168;-90
2021/09/06 06:00:09;;;;;;;17.33;9.43;;;;;;;;;;6149695;23;20205;-90
2021/09/06 06:03:17;;;;;;;25.20;9.30;;;;;;;;;;6169290;23;20216;-88
2021/09/06 06:06:27;;;;;;;22.15;10.57;;;;;;;;;;6154836;23;20221;-90
2021/09/06 06:09:36;;;;;;;18.38;9.55;;;;;;;;;;6156260;23;20172;-90
2021/09/06 06:12:45;;;;;;;18.88;10.90;;;;;;;;;;6153415;23;20176;-91
2021/09/06 06:15:52;;;;;;;22.05;10.55;;;;;;;;;;6154399;23;20185;-88
2021/09/06 06:18:57;;;;;;;31.17;9.85;;;;;;;;;;6152742;23;20517;-89
2021/09/06 06:22:06;;;;;;;23.58;10.40;;;;;;;;;;6153425;23;20221;-89
2021/09/06 06:25:39;;;;;;;31.75;17.98;;;;;;;;;;6170412;23;20233;-88
2021/09/06 06:28:56;;;;;;;40.55;11.32;;;;;;;;;;6151411;23;20292;-88
2021/09/06 06:32:01;;;;;;;20.38;10.25;;;;;;;;;;6153700;23;20192;-90
2021/09/06 06:35:08;;;;;;;21.50;11.20;;;;;;;;;;6151841;23;20152;-91
2021/09/06 06:38:14;;;;;;;19.70;9.88;;;;;;;;;;6151589;23;20171;-92
2021/09/06 06:41:27;;;;;;;17.00;9.60;;;;;;;;;;6151001;23;20244;-92
2021/09/06 06:44:43;;;;;;;17.08;9.52;;;;;;;;;;6151817;23;20156;-91
2021/09/06 06:47:47;;;;;;;14.75;8.35;;;;;;;;;;6152315;23;20156;-90
2021/09/06 06:54:21;;;;;;;20.75;10.48;;;;;;;;;;6151931;23;20164;-91
2021/09/06 06:57:26;;;;;;;20.75;9.43;;;;;;;;;;6152532;23;20176;-93
2021/09/06 07:00:33;;;;;;;18.33;9.80;;;;;;;;;;6152332;23;20160;-90
2021/09/06 07:03:39;;;;;;;16.42;9.60;;;;;;;;;;6152964;23;20195;-90
2021/09/06 07:06:45;;;;;;;18.40;10.18;;;;;;;;;;6155270;23;20168;-90
2021/09/06 07:09:51;;;;;;;17.33;10.25;;;;;;;;;;6156065;23;20188;-91
2021/09/06 07:12:59;;;;;;;14.75;8.80;;;;;;;;;;6155398;23;20165;-91
2021/09/06 07:16:06;;;;;;;26.58;10.45;;;;;;;;;;6156814;23;20169;-92
2021/09/06 07:19:11;;;;;;;19.13;10.90;;;;;;;;;;6151479;23;20192;-90
2021/09/06 07:22:22;;;;;;;20.83;10.52;;;;;;;;;;6152663;23;20168;-92
2021/09/06 07:25:28;;;;;;;18.73;9.90;;;;;;;;;;6152174;23;20160;-90
2021/09/06 07:28:34;;;;;;;17.02;10.70;;;;;;;;;;6152556;23;20192;-91
2021/09/06 07:31:48;;;;;;;22.48;11.75;;;;;;;;;;6154402;23;20172;-92
2021/09/06 07:34:54;;;;;;;16.83;10.35;;;;;;;;;;6154426;23;20185;-92
2021/09/06 07:38:02;;;;;;;22.77;10.88;;;;;;;;;;6155314;23;20270;-91
2021/09/06 07:41:13;;;;;;;17.40;10.32;;;;;;;;;;6157832;23;20172;-92
2021/09/06 07:44:19;;;;;;;15.80;9.38;;;;;;;;;;6157686;23;20172;-92
2021/09/06 07:47:27;;;;;;;15.48;9.65;;;;;;;;;;6156130;23;20256;-90
2021/09/06 07:50:45;;;;;;;18.75;9.32;;;;;;;;;;6158528;23;20168;-92
2021/09/06 07:53:53;;;;;;;14.98;9.25;;;;;;;;;;6155823;23;20230;-92
2021/09/06 07:56:59;;;;;;;13.82;9.18;;;;;;;;;;6157503;23;20184;-92
2021/09/06 08:00:10;;;;;;;15.25;9.70;;;;;;;;;;6154225;23;20197;-91
2021/09/06 08:06:40;;;;;;;15.63;9.02;;;;;;;;;;6154887;23;20187;-89
2021/09/06 08:09:46;;;;;;;18.98;9.77;;;;;;;;;;6153092;23;20169;-91
2021/09/06 08:12:52;;;;;;;16.58;9.73;;;;;;;;;;6152920;23;20193;-91
2021/09/06 08:15:59;;;;;;;17.15;10.30;;;;;;;;;;6152026;23;20632;-90
2021/09/06 08:19:06;;;;;;;13.52;8.98;;;;;;;;;;6152841;23;20192;-91
2021/09/06 08:22:11;;;;;;;15.88;9.50;;;;;;;;;;6154926;23;20233;-91
2021/09/06 08:25:17;;;;;;;16.52;9.20;;;;;;;;;;6154362;23;20306;-90
2021/09/06 08:28:22;;;;;;;20.20;9.48;;;;;;;;;;6155013;23;20181;-90
2021/09/06 08:31:30;;;;;;;15.60;8.85;;;;;;;;;;6153789;23;20172;-93
2021/09/06 08:34:36;;;;;;;23.13;8.77;;;;;;;;;;6155194;23;20168;-91
2021/09/06 08:37:42;;;;;;;16.77;9.00;;;;;;;;;;6154659;23;20220;-92
2021/09/06 08:40:48;;;;;;;16.05;8.85;;;;;;;;;;6154696;23;20236;-92
2021/09/06 08:43:54;;;;;;;15.93;9.80;;;;;;;;;;6154195;23;20181;-92
2021/09/06 08:47:02;;;;;;;16.65;8.80;;;;;;;;;;6154836;23;20173;-91
2021/09/06 08:50:11;;;;;;;16.77;8.73;;;;;;;;;;6152779;23;20169;-92
2021/09/06 08:53:18;;;;;;;16.65;8.77;;;;;;;;;;6153864;23;20176;-91
2021/09/06 08:56:28;;;;;;;23.13;10.95;;;;;;;;;;6153544;23;20513;-89
2021/09/06 08:59:33;;;;;;;13.80;8.77;;;;;;;;;;6151401;23;20197;-92
2021/09/06 09:02:54;;;;;;;17.00;8.68;;;;;;;;;;6151740;23;20192;-92
2021/09/06 09:06:16;;;;;;;11.93;7.88;;;;;;;;;;6154198;23;20616;-91
2021/09/06 09:09:33;;;;;;;14.98;8.52;;;;;;;;;;6154178;23;20169;-91
2021/09/06 09:13:04;;;;;;;14.63;8.43;;;;;;;;;;6171123;23;20173;-91
2021/09/06 09:16:29;;;;;;;17.38;9.10;;;;;;;;;;6171956;23;20168;-94
2021/09/06 09:19:54;;;;;;;16.48;8.63;;;;;;;;;;6172169;23;20196;-92
2021/09/06 09:23:21;;;;;;;15.95;9.38;;;;;;;;;;6154376;23;20532;-91
2021/09/06 09:26:40;;;;;;;15.48;8.38;;;;;;;;;;6154010;23;20620;-93
2021/09/06 09:29:51;;;;;;;13.65;9.07;;;;;;;;;;6154352;23;20189;-92
2021/09/06 09:33:07;;;;;;;13.55;8.40;;;;;;;;;;6155149;23;20172;-93
2021/09/06 09:36:31;;;;;;;14.27;8.75;;;;;;;;;;6154890;23;20172;-93
2021/09/06 09:39:41;;;;;;;13.05;8.57;;;;;;;;;;6155464;23;20242;-93
2021/09/06 09:42:51;;;;;;;15.65;8.90;;;;;;;;;;6153550;23;20167;-92
2021/09/06 09:46:06;;;;;;;14.50;8.93;;;;;;;;;;6155101;23;20224;-93
2021/09/06 09:49:19;;;;;;;11.88;8.32;;;;;;;;;;6156217;23;20243;-94
2021/09/06 09:52:26;;;;;;;13.38;8.18;;;;;;;;;;6153935;23;20175;-92
2021/09/06 09:55:43;;;;;;;12.73;8.32;;;;;;;;;;6155419;23;20197;-94
2021/09/06 09:58:49;;;;;;;13.27;8.25;;;;;;;;;;6153713;23;20185;-93
2021/09/06 10:01:58;;;;;;;13.18;8.65;;;;;;;;;;6156339;23;20175;-92
2021/09/06 10:05:04;;;;;;;13.25;8.85;;;;;;;;;;6158144;23;20192;-93
2021/09/06 10:08:12;;;;;;;15.15;9.43;;;;;;;;;;6156620;23;20167;-92
2021/09/06 10:11:21;;;;;;;14.60;9.75;;;;;;;;;;6155493;23;20247;-93
2021/09/06 10:14:33;;;;;;;15.15;10.13;;;;;;;;;;6156152;23;20488;-93
2021/09/06 10:17:40;;;;;;;14.57;9.50;;;;;;;;;;6153297;23;20176;-91
2021/09/06 10:20:45;;;;;;;15.10;9.85;;;;;;;;;;6156065;23;20171;-91
2021/09/06 10:23:52;;;;;;;13.13;9.13;;;;;;;;;;6152726;23;20171;-93
2021/09/06 10:27:05;;;;;;;12.50;8.88;;;;;;;;;;6154682;23;20619;-94
2021/09/06 10:30:14;;;;;;;13.85;9.40;;;;;;;;;;6153285;23;20271;-93
2021/09/06 10:33:24;;;;;;;16.27;9.05;;;;;;;;;;6155971;23;20224;-92
2021/09/06 10:36:38;;;;;;;13.93;9.40;;;;;;;;;;6156050;23;20220;-90
2021/09/06 10:39:46;;;;;;;14.40;8.77;;;;;;;;;;6154055;23;20177;-92
2021/09/06 10:42:53;;;;;;;15.40;9.80;;;;;;;;;;6153345;23;20171;-93
2021/09/06 10:45:59;;;;;;;16.75;9.40;;;;;;;;;;6156407;23;20176;-91
2021/09/06 10:49:10;;;;;;;13.80;8.68;;;;;;;;;;6156046;23;20172;-93
2021/09/06 10:52:16;;;;;;;11.95;8.98;;;;;;;;;;6154633;23;20219;-93
2021/09/06 10:55:52;;;;;;;12.85;8.68;;;;;;;;;;6171996;23;20187;-93
2021/09/06 10:59:01;;;;;;;16.98;9.02;;;;;;;;;;6154177;23;20220;-91
2021/09/06 11:02:08;;;;;;;16.20;9.13;;;;;;;;;;6156067;23;20192;-91
2021/09/06 11:05:19;;;;;;;14.77;9.40;;;;;;;;;;6153580;23;20176;-91
2021/09/06 11:08:31;;;;;;;11.65;8.85;;;;;;;;;;6154643;23;20180;-91
2021/09/06 11:11:43;;;;;;;14.32;8.98;;;;;;;;;;6153304;23;20164;-92
2021/09/06 11:14:52;;;;;;;12.80;9.13;;;;;;;;;;6173082;23;20155;-90
2021/09/06 11:17:58;;;;;;;11.88;8.73;;;;;;;;;;6155894;23;20732;-91
2021/09/06 11:21:06;;;;;;;11.35;8.57;;;;;;;;;;6154062;23;20168;-93
2021/09/06 11:24:12;;;;;;;13.30;8.45;;;;;;;;;;6156125;23;20263;-91
2021/09/06 11:27:29;;;;;;;13.00;9.07;;;;;;;;;;6153216;23;20175;-92
2021/09/06 11:30:39;;;;;;;12.52;8.27;;;;;;;;;;6153158;23;20196;-92
2021/09/06 11:33:44;;;;;;;15.13;8.70;;;;;;;;;;6154228;23;20241;-92
2021/09/06 11:36:50;;;;;;;10.70;7.97;;;;;;;;;;6154550;23;20229;-90
2021/09/06 11:39:56;;;;;;;14.07;8.32;;;;;;;;;;6153637;23;20171;-92
2021/09/06 11:43:01;;;;;;;11.18;8.05;;;;;;;;;;6154067;23;20172;-91
2021/09/06 11:46:07;;;;;;;14.65;7.80;;;;;;;;;;6151227;23;20192;-92
2021/09/06 11:49:18;;;;;;;11.27;7.78;;;;;;;;;;6153460;23;20175;-92
2021/09/06 11:52:32;;;;;;;10.25;6.95;;;;;;;;;;6154016;23;20243;-92
2021/09/06 11:55:38;;;;;;;9.68;7.25;;;;;;;;;;6154987;23;20627;-92
2021/09/06 11:58:44;;;;;;;13.27;7.35;;;;;;;;;;6152143;23;20251;-93
2021/09/06 12:01:51;;;;;;;10.07;7.43;;;;;;;;;;6154274;23;20167;-91
2021/09/06 12:05:04;;;;;;;11.13;7.43;;;;;;;;;;6153505;23;20179;-94
2021/09/06 12:08:12;;;;;;;11.18;7.80;;;;;;;;;;6154308;23;20172;-91
2021/09/06 12:11:17;;;;;;;11.73;7.70;;;;;;;;;;6155357;23;20199;-89
2021/09/06 12:14:23;;;;;;;12.63;7.60;;;;;;;;;;6153049;23;20172;-93
2021/09/06 12:17:36;;;;;;;12.77;7.75;;;;;;;;;;6152892;23;20384;-91
2021/09/06 12:20:43;;;;;;;10.93;7.38;;;;;;;;;;6151570;23;20171;-93
2021/09/06 12:23:49;;;;;;;16.33;7.65;;;;;;;;;;6153345;23;20167;-92
2021/09/06 12:26:55;;;;;;;9.70;6.68;;;;;;;;;;6152272;23;20188;-93
2021/09/06 12:30:00;;;;;;;13.60;7.97;;;;;;;;;;6151036;23;20318;-91
2021/09/06 12:33:07;;;;;;;13.52;6.68;;;;;;;;;;6152090;23;20184;-93
2021/09/06 12:36:16;;;;;;;11.73;7.18;;;;;;;;;;6152625;23;20176;-90
2021/09/06 12:39:22;;;;;;;14.05;6.35;;;;;;;;;;6154259;23;20172;-91
2021/09/06 12:42:28;;;;;;;14.57;7.40;;;;;;;;;;6153535;23;20217;-91
2021/09/06 12:45:33;;;;;;;11.75;6.70;;;;;;;;;;6152526;23;20207;-91
2021/09/06 12:48:40;;;;;;;11.68;7.03;;;;;;;;;;6153071;23;20442;-91
2021/09/06 12:51:45;;;;;;;9.07;6.43;;;;;;;;;;6152850;23;20232;-90
2021/09/06 12:54:50;;;;;;;9.18;6.53;;;;;;;;;;6152160;23;20172;-88
2021/09/06 12:57:55;;;;;;;11.30;6.70;;;;;;;;;;6153261;23;20216;-90
2021/09/06 13:01:00;;;;;;;11.98;7.10;;;;;;;;;;6155216;23;20167;-91
2021/09/06 13:04:06;;;;;;;9.68;7.38;;;;;;;;;;6154065;23;20239;-90
2021/09/06 13:07:15;;;;;;;8.80;6.60;;;;;;;;;;6154746;23;20168;-89
2021/09/06 13:10:21;;;;;;;10.90;7.05;;;;;;;;;;6154181;23;20261;-90
2021/09/06 13:13:27;;;;;;;10.35;6.90;;;;;;;;;;6152952;23;20196;-91
2021/09/06 13:16:32;;;;;;;10.80;6.90;;;;;;;;;;6153977;23;20187;-91
2021/09/06 13:19:41;;;;;;;9.40;6.65;;;;;;;;;;6150357;23;20179;-91
2021/09/06 13:22:47;;;;;;;10.25;7.10;;;;;;;;;;6152555;23;20160;-92
2021/09/06 13:25:52;;;;;;;9.27;6.55;;;;;;;;;;6149778;23;20175;-91
2021/09/06 13:28:57;;;;;;;11.55;7.03;;;;;;;;;;6151373;23;20506;-92
2021/09/06 13:32:02;;;;;;;9.52;6.13;;;;;;;;;;6150593;23;20196;-91
2021/09/06 13:35:09;;;;;;;10.85;6.85;;;;;;;;;;6152840;23;20595;-92
2021/09/06 13:38:15;;;;;;;10.68;7.38;;;;;;;;;;6154268;23;20196;-90
2021/09/06 13:41:20;;;;;;;9.73;7.00;;;;;;;;;;6151425;23;20171;-91
2021/09/06 13:44:25;;;;;;;11.20;7.32;;;;;;;;;;6152222;23;20181;-90
2021/09/06 13:47:31;;;;;;;9.55;6.07;;;;;;;;;;6151288;23;20175;-94
2021/09/06 13:50:40;;;;;;;10.60;6.25;;;;;;;;;;6151048;23;20200;-92
2021/09/06 13:53:45;;;;;;;9.52;6.40;;;;;;;;;;6150841;23;20172;-90
2021/09/06 13:56:50;;;;;;;10.75;6.18;;;;;;;;;;6150631;23;20164;-92
2021/09/06 13:59:55;;;;;;;16.27;6.63;;;;;;;;;;6150474;23;20284;-89
2021/09/06 14:03:01;;;;;;;10.38;6.68;;;;;;;;;;6156897;23;20191;-92
2021/09/06 14:06:08;;;;;;;13.82;6.53;;;;;;;;;;6151731;23;20199;-92
2021/09/06 14:09:13;;;;;;;9.95;6.72;;;;;;;;;;6152004;23;20239;-92
2021/09/06 14:12:21;;;;;;;11.77;7.15;;;;;;;;;;6153258;23;20332;-92
2021/09/06 14:15:26;;;;;;;9.52;6.40;;;;;;;;;;6153323;23;20192;-91
2021/09/06 14:18:31;;;;;;;9.82;6.35;;;;;;;;;;6151381;23;20189;-91
2021/09/06 14:21:40;;;;;;;10.45;6.78;;;;;;;;;;6152897;23;20188;-89
2021/09/06 14:24:45;;;;;;;9.45;6.80;;;;;;;;;;6153811;23;20244;-92
2021/09/06 14:27:50;;;;;;;8.00;6.32;;;;;;;;;;6149112;23;20168;-92
2021/09/06 14:30:56;;;;;;;12.10;6.72;;;;;;;;;;6151527;23;20191;-92
2021/09/06 14:34:01;;;;;;;12.70;7.35;;;;;;;;;;6153034;23;20223;-91
2021/09/06 14:37:07;;;;;;;11.57;7.57;;;;;;;;;;6151867;23;20508;-90
2021/09/06 14:40:13;;;;;;;11.77;6.60;;;;;;;;;;6152159;23;20168;-91
2021/09/06 14:43:18;;;;;;;9.93;6.55;;;;;;;;;;6152370;23;20452;-91
2021/09/06 14:46:23;;;;;;;11.57;6.57;;;;;;;;;;6151826;23;20219;-91
2021/09/06 14:49:29;;;;;;;10.43;6.55;;;;;;;;;;6151859;23;20200;-92
2021/09/06 14:52:35;;;;;;;10.85;7.55;;;;;;;;;;6151180;23;20191;-91
2021/09/06 14:55:40;;;;;;;13.50;6.95;;;;;;;;;;6151362;23;20175;-89
2021/09/06 14:58:45;;;;;;;8.95;6.18;;;;;;;;;;6148858;23;20188;-91
2021/09/06 15:01:50;;;;;;;9.70;6.22;;;;;;;;;;6149278;23;20167;-89
2021/09/06 15:04:56;;;;;;;11.93;7.15;;;;;;;;;;6153152;23;20191;-88
2021/09/06 15:08:05;;;;;;;9.98;6.13;;;;;;;;;;6155772;23;20175;-88
2021/09/06 15:11:11;;;;;;;11.18;6.75;;;;;;;;;;6156230;23;20195;-90
2021/09/06 15:14:24;;;;;;;9.40;6.75;;;;;;;;;;6155619;23;20191;-90
2021/09/06 15:17:29;;;;;;;11.85;6.75;;;;;;;;;;6155994;23;20233;-91
2021/09/06 15:20:36;;;;;;;12.05;7.40;;;;;;;;;;6154817;23;20176;-90
2021/09/06 15:23:44;;;;;;;11.23;6.93;;;;;;;;;;6155864;23;20179;-93
2021/09/06 15:30:20;;;;;;;9.75;6.72;;;;;;;;;;6157120;23;20168;-93
2021/09/06 15:33:29;;;;;;;9.88;6.88;;;;;;;;;;6156687;23;20179;-91
2021/09/06 15:36:36;;;;;;;11.55;6.47;;;;;;;;;;6173398;23;20189;-92
2021/09/06 15:39:45;;;;;;;11.52;7.03;;;;;;;;;;6151792;23;20162;-90
2021/09/06 15:42:58;;;;;;;11.43;6.43;;;;;;;;;;6155098;23;20188;-91
2021/09/06 15:46:26;;;;;;;14.63;6.22;;;;;;;;;;6170941;23;20176;-90
2021/09/06 15:49:32;;;;;;;12.10;6.85;;;;;;;;;;6152480;23;20628;-91
2021/09/06 15:52:39;;;;;;;11.07;6.20;;;;;;;;;;6150275;23;20526;-93
2021/09/06 15:55:48;;;;;;;10.77;6.88;;;;;;;;;;6152533;23;20192;-91
2021/09/06 15:58:53;;;;;;;12.15;7.03;;;;;;;;;;6153859;23;20173;-90
2021/09/06 16:01:58;;;;;;;12.63;6.90;;;;;;;;;;6156256;23;20172;-92
2021/09/06 16:05:03;;;;;;;14.25;6.72;;;;;;;;;;6156458;23;20230;-92
2021/09/06 16:08:09;;;;;;;12.75;7.18;;;;;;;;;;6154880;23;20248;-93
2021/09/06 16:11:16;;;;;;;10.10;7.03;;;;;;;;;;6153367;23;20192;-91
2021/09/06 16:14:22;;;;;;;11.70;6.25;;;;;;;;;;6154971;23;20181;-92
2021/09/06 16:17:27;;;;;;;10.38;6.60;;;;;;;;;;6155802;23;20192;-91
2021/09/06 16:20:32;;;;;;;11.10;6.30;;;;;;;;;;6154898;23;20185;-92
2021/09/06 16:23:37;;;;;;;11.80;6.70;;;;;;;;;;6157105;23;20181;-90
2021/09/06 16:26:44;;;;;;;12.98;7.07;;;;;;;;;;6156743;23;20163;-91
2021/09/06 16:29:49;;;;;;;11.77;6.32;;;;;;;;;;6154855;23;20292;-92
2021/09/06 16:32:55;;;;;;;11.27;6.85;;;;;;;;;;6158148;23;20216;-92
2021/09/06 16:36:01;;;;;;;12.40;6.80;;;;;;;;;;6156313;23;20222;-91
2021/09/06 16:39:06;;;;;;;12.18;7.28;;;;;;;;;;6156255;23;20237;-90
2021/09/06 16:42:14;;;;;;;13.77;7.32;;;;;;;;;;6157901;23;20210;-93
2021/09/06 16:45:19;;;;;;;14.50;7.05;;;;;;;;;;6156393;23;20160;-91
2021/09/06 16:48:25;;;;;;;13.10;7.50;;;;;;;;;;6156705;23;20258;-94
2021/09/06 16:51:30;;;;;;;13.48;7.50;;;;;;;;;;6156092;23;20258;-90
2021/09/06 16:54:36;;;;;;;16.17;7.40;;;;;;;;;;6156562;23;20193;-90
2021/09/06 16:57:42;;;;;;;13.15;6.57;;;;;;;;;;6156552;23;20666;-92
2021/09/06 17:00:48;;;;;;;13.32;7.70;;;;;;;;;;6156910;23;20729;-90
2021/09/06 17:03:54;;;;;;;14.50;7.30;;;;;;;;;;6157098;23;20191;-92
2021/09/06 17:07:00;;;;;;;14.13;7.13;;;;;;;;;;6158973;23;20197;-90
2021/09/06 17:10:08;;;;;;;16.35;7.43;;;;;;;;;;6159494;23;20177;-90
2021/09/06 17:13:22;;;;;;;14.88;7.57;;;;;;;;;;6158563;23;20240;-90
2021/09/06 17:16:28;;;;;;;15.98;7.60;;;;;;;;;;6159509;23;20164;-91
2021/09/06 17:19:36;;;;;;;15.75;7.40;;;;;;;;;;6158651;23;20222;-90
2021/09/06 17:22:42;;;;;;;14.20;8.40;;;;;;;;;;6156596;23;20173;-91
2021/09/06 17:25:48;;;;;;;15.35;8.73;;;;;;;;;;6158813;23;20240;-90
2021/09/06 17:28:55;;;;;;;17.45;8.68;;;;;;;;;;6156731;23;20164;-90
2021/09/06 17:32:01;;;;;;;17.30;8.02;;;;;;;;;;6158073;23;20233;-90
2021/09/06 17:35:07;;;;;;;16.05;8.10;;;;;;;;;;6157396;23;20225;-91
2021/09/06 17:38:14;;;;;;;18.92;8.07;;;;;;;;;;6174971;23;20181;-93
2021/09/06 17:41:20;;;;;;;17.80;8.27;;;;;;;;;;6155156;23;20164;-92
2021/09/06 17:44:27;;;;;;;16.25;8.40;;;;;;;;;;6153894;23;20152;-91
2021/09/06 17:47:32;;;;;;;17.35;8.20;;;;;;;;;;6157790;23;20172;-90
2021/09/06 17:50:37;;;;;;;15.15;7.90;;;;;;;;;;6154306;23;20253;-92
2021/09/06 17:53:44;;;;;;;20.63;8.90;;;;;;;;;;6152038;23;20168;-91
2021/09/06 17:56:49;;;;;;;19.13;9.68;;;;;;;;;;6154213;23;20164;-91
2021/09/06 18:04:11;;;;;;;31.70;13.50;;;;;;;;;;6170055;23;20679;-89
2021/09/06 18:07:16;;;;;;;46.05;17.50;;;;;;;;;;6154217;23;20164;-90
2021/09/06 18:10:22;;;;;;;37.25;14.88;;;;;;;;;;6153635;23;20612;-91
2021/09/06 18:13:28;;;;;;;22.08;10.30;;;;;;;;;;6153415;23;20565;-90
2021/09/06 18:16:34;;;;;;;23.38;10.38;;;;;;;;;;6170382;23;20184;-90
2021/09/06 18:19:42;;;;;;;18.00;9.18;;;;;;;;;;6137320;23;20177;-89
2021/09/06 18:22:49;;;;;;;22.33;11.73;;;;;;;;;;6153675;23;20168;-90
2021/09/06 18:25:55;;;;;;;19.00;10.35;;;;;;;;;;6152459;23;20392;-90
2021/09/06 18:29:01;;;;;;;18.10;8.60;;;;;;;;;;6153865;23;20180;-90
2021/09/06 18:32:06;;;;;;;15.32;9.23;;;;;;;;;;6152305;23;20301;-89
2021/09/06 18:35:13;;;;;;;16.77;8.35;;;;;;;;;;6153085;23;20161;-90
2021/09/06 18:38:18;;;;;;;15.40;9.10;;;;;;;;;;6150045;23;20168;-91
2021/09/06 18:41:24;;;;;;;16.77;9.05;;;;;;;;;;6151014;23;20159;-88
2021/09/06 18:44:30;;;;;;;18.77;9.50;;;;;;;;;;6154477;23;20175;-90